createdAt,value
2022-12-08T00:02:07.202Z,98809.34
2022-12-08T00:05:00.062Z,98806.28
2022-12-08T00:07:42.471Z,98804.03
2022-12-08T00:10:46.764Z,98795.72
2022-12-08T00:13:02.369Z,98784.16
2022-12-08T00:15:32.058Z,98779.94
2022-12-08T00:18:02.255Z,98775.19
2022-12-08T00:20:34.517Z,98773.78
2022-12-08T00:23:04.496Z,98778.94
2022-12-08T00:25:34.623Z,98772.63
2022-12-08T00:28:04.481Z,98770.53
2022-12-08T00:30:34.199Z,98765.00
2022-12-08T00:33:03.879Z,98758.47
2022-12-08T00:35:41.536Z,98758.78
2022-12-08T00:38:12.647Z,98751.88
2022-12-08T00:40:47.029Z,98760.09
2022-12-08T00:43:17.267Z,98760.63
2022-12-08T00:45:47.130Z,98760.31
2022-12-08T00:48:16.887Z,98757.09
2022-12-08T00:50:49.148Z,98747.66
2022-12-08T00:53:19.197Z,98743.47
2022-12-08T00:55:48.909Z,98737.22
2022-12-08T00:58:18.611Z,98728.88
2022-12-08T01:00:48.482Z,98723.97
2022-12-08T01:03:18.245Z,98725.03
2022-12-08T01:05:50.601Z,98716.66
2022-12-08T01:08:20.302Z,98722.38
2022-12-08T01:10:50.067Z,98722.16
2022-12-08T01:13:19.735Z,98723.56
2022-12-08T01:15:49.548Z,98715.69
2022-12-08T01:18:19.186Z,98720.34
2022-12-08T01:20:52.864Z,98716.53
2022-12-08T01:23:22.598Z,98712.75
2022-12-08T01:25:53.490Z,98711.25
2022-12-08T01:28:23.213Z,98724.41
2022-12-08T01:30:52.900Z,98723.25
2022-12-08T01:33:22.613Z,98728.63
2022-12-08T01:35:55.454Z,98716.78
2022-12-08T01:38:25.591Z,98719.47
2022-12-08T01:40:55.637Z,98725.13
2022-12-08T01:43:25.465Z,98720.63
2022-12-08T01:45:55.238Z,98719.00
2022-12-08T01:48:29.808Z,98722.91
2022-12-08T01:51:02.285Z,98712.31
2022-12-08T01:53:35.437Z,98720.66
2022-12-08T01:56:11.610Z,98710.69
2022-12-08T01:58:46.118Z,98715.22
2022-12-08T02:01:16.053Z,98716.53
2022-12-08T02:03:49.434Z,98711.50
2022-12-08T02:06:22.952Z,98703.34
2022-12-08T02:08:55.201Z,98704.66
2022-12-08T02:11:25.081Z,98694.78
2022-12-08T02:13:57.427Z,98699.25
2022-12-08T02:16:40.825Z,98687.22
2022-12-08T02:19:39.449Z,98692.63
2022-12-08T02:22:17.008Z,98693.06
2022-12-08T02:24:53.932Z,98693.06
2022-12-08T02:27:46.648Z,98682.91
2022-12-08T02:30:22.635Z,98679.25
2022-12-08T02:33:28.156Z,98671.50
2022-12-08T02:36:07.571Z,98672.09
2022-12-08T02:38:49.203Z,98669.88
2022-12-08T02:41:27.149Z,98670.44
2022-12-08T02:44:04.854Z,98666.94
2022-12-08T02:46:39.057Z,98667.50
2022-12-08T02:49:09.740Z,98660.00
2022-12-08T02:51:42.043Z,98662.66
2022-12-08T02:54:12.777Z,98664.91
2022-12-08T02:57:03.064Z,98655.50
2022-12-08T02:59:47.284Z,98651.28
2022-12-08T03:02:35.778Z,98659.25
2022-12-08T03:05:22.553Z,98651.03
2022-12-08T03:08:03.452Z,98650.56
2022-12-08T03:10:38.421Z,98644.25
2022-12-08T03:13:12.747Z,98649.41
2022-12-08T03:15:44.243Z,98638.47
2022-12-08T03:18:18.380Z,98641.31
2022-12-08T03:20:50.473Z,98634.97
2022-12-08T03:23:24.745Z,98623.69
2022-12-08T03:26:04.596Z,98621.66
2022-12-08T03:28:34.614Z,98628.59
2022-12-08T03:31:08.495Z,98618.34
2022-12-08T03:33:42.173Z,98612.38
2022-12-08T03:36:13.684Z,98608.41
2022-12-08T03:38:48.852Z,98612.75
2022-12-08T03:41:21.416Z,98612.50
2022-12-08T03:43:52.815Z,98612.25
2022-12-08T03:48:53.302Z,98596.41
2022-12-08T03:51:23.385Z,98601.00
2022-12-08T03:53:56.040Z,98599.38
2022-12-08T03:56:28.303Z,98589.81
2022-12-08T03:58:58.530Z,98593.13
2022-12-08T04:01:28.820Z,98588.19
2022-12-08T04:03:58.767Z,98589.25
2022-12-08T04:06:29.023Z,98592.28
2022-12-08T04:09:01.330Z,98598.63
2022-12-08T04:11:31.009Z,98590.88
2022-12-08T04:14:00.733Z,98589.94
2022-12-08T04:16:30.462Z,98583.72
2022-12-08T04:19:00.242Z,98585.81
2022-12-08T04:21:30.703Z,98584.72
2022-12-08T04:24:03.166Z,98583.22
2022-12-08T04:26:32.898Z,98583.34
2022-12-08T04:29:02.605Z,98588.03
2022-12-08T04:31:32.351Z,98578.41
2022-12-08T04:34:02.178Z,98576.75
2022-12-08T04:36:31.899Z,98583.78
2022-12-08T04:39:04.263Z,98572.53
2022-12-08T04:41:33.932Z,98574.56
2022-12-08T04:44:03.649Z,98571.59
2022-12-08T04:46:33.374Z,98581.47
2022-12-08T04:49:03.134Z,98579.59
2022-12-08T04:51:32.857Z,98573.97
2022-12-08T04:54:05.134Z,98577.38
2022-12-08T04:56:34.848Z,98577.75
2022-12-08T04:59:04.556Z,98578.69
2022-12-08T05:01:34.414Z,98574.69
2022-12-08T05:04:04.188Z,98580.31
2022-12-08T05:06:33.932Z,98577.38
2022-12-08T05:09:06.254Z,98569.25
2022-12-08T05:11:35.943Z,98561.28
2022-12-08T05:14:05.657Z,98562.81
2022-12-08T05:16:35.368Z,98561.63
2022-12-08T05:19:05.161Z,98563.06
2022-12-08T05:21:34.913Z,98550.50
2022-12-08T05:24:07.784Z,98554.81
2022-12-08T05:26:37.492Z,98553.19
2022-12-08T05:29:07.262Z,98554.72
2022-12-08T05:31:37.152Z,98555.91
2022-12-08T05:34:06.963Z,98553.28
2022-12-08T05:36:36.663Z,98566.56
2022-12-08T05:39:09.007Z,98553.19
2022-12-08T05:41:38.689Z,98560.69
2022-12-08T05:44:09.072Z,98555.66
2022-12-08T05:46:40.026Z,98552.38
2022-12-08T05:49:16.687Z,98554.81
2022-12-08T05:51:46.590Z,98546.25
2022-12-08T05:54:19.022Z,98549.06
2022-12-08T05:56:49.317Z,98546.00
2022-12-08T05:59:19.386Z,98544.38
2022-12-08T06:01:49.188Z,98538.25
2022-12-08T06:04:19.100Z,98536.47
2022-12-08T06:06:48.807Z,98531.06
2022-12-08T06:09:21.358Z,98531.69
2022-12-08T06:11:51.026Z,98530.97
2022-12-08T06:14:20.791Z,98524.66
2022-12-08T06:16:50.581Z,98521.84
2022-12-08T06:19:20.399Z,98522.66
2022-12-08T06:21:50.183Z,98521.09
2022-12-08T06:24:22.461Z,98518.31
2022-12-08T06:26:52.132Z,98522.03
2022-12-08T06:29:21.867Z,98524.66
2022-12-08T06:31:52.481Z,98524.75
2022-12-08T06:34:22.326Z,98524.16
2022-12-08T06:36:52.033Z,98533.06
2022-12-08T06:39:24.308Z,98536.50
2022-12-08T06:42:06.469Z,98526.63
2022-12-08T06:44:36.284Z,98534.50
2022-12-08T06:47:06.077Z,98528.38
2022-12-08T06:49:35.770Z,98523.81
2022-12-08T06:52:06.039Z,98530.50
2022-12-08T06:54:38.369Z,98530.03
2022-12-08T06:57:08.115Z,98541.66
2022-12-08T06:59:37.806Z,98537.28
2022-12-08T07:02:07.503Z,98538.25
2022-12-08T07:04:37.206Z,98534.69
2022-12-08T07:07:06.942Z,98527.91
2022-12-08T07:09:39.488Z,98530.84
2022-12-08T07:12:09.838Z,98529.44
2022-12-08T07:14:39.586Z,98534.84
2022-12-08T07:17:09.298Z,98532.94
2022-12-08T07:19:39.042Z,98532.31
2022-12-08T07:22:08.708Z,98529.63
2022-12-08T07:24:40.990Z,98534.09
2022-12-08T07:27:10.701Z,98544.97
2022-12-08T07:29:40.442Z,98540.44
2022-12-08T07:32:10.827Z,98528.66
2022-12-08T07:34:40.556Z,98536.19
2022-12-08T07:37:10.271Z,98529.94
2022-12-08T07:39:43.103Z,98527.50
2022-12-08T07:42:12.874Z,98529.84
2022-12-08T07:44:42.643Z,98517.03
2022-12-08T07:47:12.302Z,98524.50
2022-12-08T07:49:41.973Z,98512.84
2022-12-08T07:52:11.715Z,98509.94
2022-12-08T07:54:45.240Z,98510.03
2022-12-08T07:57:15.047Z,98512.84
2022-12-08T07:59:45.075Z,98521.06
2022-12-08T08:02:24.720Z,98516.69
2022-12-08T08:04:55.672Z,98507.88
2022-12-08T08:07:25.339Z,98507.63
2022-12-08T08:09:57.583Z,98507.88
2022-12-08T08:12:32.162Z,98512.91
2022-12-08T08:15:03.162Z,98517.19
2022-12-08T08:17:33.206Z,98528.50
2022-12-08T08:20:03.927Z,98506.03
2022-12-08T08:22:33.824Z,98504.78
2022-12-08T08:25:06.728Z,98516.03
2022-12-08T08:27:36.511Z,98521.97
2022-12-08T08:30:07.553Z,98517.91
2022-12-08T08:32:38.070Z,98514.03
2022-12-08T08:35:08.939Z,98510.22
2022-12-08T08:37:38.661Z,98519.44
2022-12-08T08:40:12.048Z,98509.53
2022-12-08T08:42:41.732Z,98512.03
2022-12-08T08:45:12.239Z,98521.66
2022-12-08T08:47:41.958Z,98516.94
2022-12-08T08:50:12.044Z,98513.31
2022-12-08T08:52:41.933Z,98524.50
2022-12-08T08:55:14.354Z,98520.53
2022-12-08T08:57:44.138Z,98518.25
2022-12-08T09:00:15.418Z,98526.50
2022-12-08T09:02:45.113Z,98523.81
2022-12-08T09:05:14.866Z,98524.16
2022-12-08T09:07:44.630Z,98520.97
2022-12-08T09:10:18.992Z,98527.47
2022-12-08T09:12:48.713Z,98526.63
2022-12-08T09:15:20.546Z,98529.06
2022-12-08T09:17:50.264Z,98537.78
2022-12-08T09:20:20.121Z,98527.94
2022-12-08T09:22:49.846Z,98533.44
2022-12-08T09:25:22.140Z,98527.94
2022-12-08T09:27:51.863Z,98532.81
2022-12-08T09:30:21.612Z,98531.28
2022-12-08T09:32:51.318Z,98524.34
2022-12-08T09:35:21.094Z,98528.19
2022-12-08T09:37:50.830Z,98519.91
2022-12-08T09:40:25.251Z,98519.34
2022-12-08T09:42:58.560Z,98518.13
2022-12-08T09:45:32.756Z,98518.69
2022-12-08T09:48:07.945Z,98515.72
2022-12-08T09:50:42.267Z,98510.66
2022-12-08T09:53:17.466Z,98511.31
2022-12-08T09:55:54.213Z,98503.59
2022-12-08T09:58:30.329Z,98509.78
2022-12-08T10:01:00.195Z,98505.91
2022-12-08T10:03:32.816Z,98506.38
2022-12-08T10:06:10.396Z,98510.78
2022-12-08T10:08:50.137Z,98509.53
2022-12-08T10:11:29.665Z,98502.16
2022-12-08T10:14:05.766Z,98497.91
2022-12-08T10:16:39.503Z,98499.31
2022-12-08T10:19:17.102Z,98501.91
2022-12-08T10:21:47.562Z,98501.25
2022-12-08T10:24:25.595Z,98500.59
2022-12-08T10:26:58.921Z,98492.25
2022-12-08T10:29:28.730Z,98496.91
2022-12-08T10:32:01.543Z,98499.38
2022-12-08T10:34:31.376Z,98501.28
2022-12-08T10:37:02.197Z,98501.03
2022-12-08T10:39:33.851Z,98500.91
2022-12-08T10:42:11.111Z,98495.75
2022-12-08T10:44:57.305Z,98496.22
2022-12-08T10:47:29.603Z,98490.66
2022-12-08T10:50:20.905Z,98507.09
2022-12-08T10:52:59.076Z,98499.06
2022-12-08T10:55:31.274Z,98498.22
2022-12-08T10:58:03.608Z,98496.50
2022-12-08T11:00:33.502Z,98509.88
2022-12-08T11:03:05.225Z,98509.41
2022-12-08T11:05:36.926Z,98501.66
2022-12-08T11:08:08.178Z,98509.69
2022-12-08T11:10:42.452Z,98510.25
2022-12-08T11:13:22.344Z,98506.72
2022-12-08T11:15:53.439Z,98502.63
2022-12-08T11:18:32.675Z,98510.03
2022-12-08T11:21:08.647Z,98511.44
2022-12-08T11:23:40.361Z,98508.56
2022-12-08T11:26:18.439Z,98514.41
2022-12-08T11:28:50.818Z,98510.84
2022-12-08T11:31:31.999Z,98507.56
2022-12-08T11:34:01.901Z,98518.47
2022-12-08T11:36:35.855Z,98516.66
2022-12-08T11:39:08.201Z,98515.44
2022-12-08T11:41:45.988Z,98513.84
2022-12-08T11:44:29.308Z,98520.06
2022-12-08T11:47:02.705Z,98514.44
2022-12-08T11:49:39.548Z,98505.88
2022-12-08T11:52:14.740Z,98506.41
2022-12-08T11:54:50.667Z,98502.00
2022-12-08T11:57:21.773Z,98509.19
2022-12-08T11:59:57.180Z,98509.19
2022-12-08T12:02:29.916Z,98508.72
2022-12-08T12:05:05.652Z,98508.59
2022-12-08T12:07:47.909Z,98511.16
2022-12-08T12:10:43.045Z,98498.22
2022-12-08T12:13:25.360Z,98508.34
2022-12-08T12:16:27.909Z,98510.94
2022-12-08T12:19:04.098Z,98513.94
2022-12-08T12:21:38.265Z,98506.41
2022-12-08T12:24:12.368Z,98501.28
2022-12-08T12:26:56.897Z,98500.94
2022-12-08T12:29:29.289Z,98511.47
2022-12-08T12:32:04.032Z,98505.59
2022-12-08T12:34:39.959Z,98505.16
2022-12-08T12:37:13.595Z,98501.28
2022-12-08T12:39:52.044Z,98508.06
2022-12-08T12:42:39.702Z,98505.63
2022-12-08T12:45:29.719Z,98500.03
2022-12-08T12:48:32.180Z,98503.63
2022-12-08T12:51:38.572Z,98498.56
2022-12-08T12:54:29.448Z,98502.66
2022-12-08T12:57:17.314Z,98503.47
2022-12-08T13:00:05.519Z,98505.91
2022-12-08T13:02:38.249Z,98501.09
2022-12-08T13:05:13.005Z,98502.56
2022-12-08T13:07:46.442Z,98506.09
2022-12-08T13:10:25.088Z,98504.63
2022-12-08T13:13:19.111Z,98506.38
2022-12-08T13:15:53.568Z,98508.53
2022-12-08T13:18:26.691Z,98506.16
2022-12-08T13:21:00.229Z,98507.31
2022-12-08T13:23:47.249Z,98501.09
2022-12-08T13:26:22.348Z,98496.19
2022-12-08T13:29:17.241Z,98504.09
2022-12-08T13:31:51.313Z,98495.22
2022-12-08T13:34:37.117Z,98500.81
2022-12-08T13:37:26.054Z,98495.69
2022-12-08T13:40:00.682Z,98504.41
2022-12-08T13:42:44.882Z,98508.25
2022-12-08T13:45:48.685Z,98510.00
2022-12-08T13:48:47.965Z,98509.06
2022-12-08T13:55:01.890Z,98509.13
2022-12-08T13:57:10.030Z,98521.69
2022-12-08T13:59:47.456Z,98517.22
2022-12-08T14:02:21.589Z,98512.81
2022-12-08T14:05:17.442Z,98516.88
2022-12-08T14:07:43.229Z,98516.81
2022-12-08T14:10:19.277Z,98511.72
2022-12-08T14:12:54.355Z,98513.75
2022-12-08T14:15:37.199Z,98518.47
2022-12-08T14:18:09.455Z,98518.31
2022-12-08T14:21:11.962Z,98519.94
2022-12-08T14:23:28.830Z,98525.75
2022-12-08T14:25:59.393Z,98523.06
2022-12-08T14:28:29.149Z,98520.38
2022-12-08T14:31:02.404Z,98519.94
2022-12-08T14:33:34.114Z,98515.50
2022-12-08T14:36:03.969Z,98523.59
2022-12-08T14:38:33.939Z,98520.44
2022-12-08T14:41:07.058Z,98517.03
2022-12-08T14:43:37.203Z,98520.13
2022-12-08T14:46:23.253Z,98513.91
2022-12-08T14:48:53.711Z,98516.97
2022-12-08T14:51:29.874Z,98526.22
2022-12-08T14:54:02.103Z,98527.09
2022-12-08T14:56:39.090Z,98532.63
2022-12-08T14:59:15.489Z,98528.38
2022-12-08T15:01:50.544Z,98530.81
2022-12-08T15:04:22.842Z,98538.81
2022-12-08T15:06:55.560Z,98533.66
2022-12-08T15:09:34.928Z,98537.88
2022-12-08T15:12:06.936Z,98523.94
2022-12-08T15:14:38.478Z,98528.97
2022-12-08T15:17:37.482Z,98526.13
2022-12-08T15:20:34.585Z,98534.25
2022-12-08T15:23:05.077Z,98545.63
2022-12-08T15:25:35.374Z,98550.91
2022-12-08T15:28:05.873Z,98553.19
2022-12-08T15:30:35.547Z,98554.31
2022-12-08T15:33:08.230Z,98553.00
2022-12-08T15:35:40.918Z,98553.84
2022-12-08T15:38:21.837Z,98556.91
2022-12-08T15:40:51.630Z,98552.25
2022-12-08T15:43:21.959Z,98554.69
2022-12-08T15:45:59.186Z,98559.25
2022-12-08T15:48:33.261Z,98560.53
2022-12-08T15:51:03.070Z,98552.38
2022-12-08T15:53:32.801Z,98557.69
2022-12-08T15:58:57.626Z,98560.66
2022-12-08T16:01:28.508Z,98560.59
2022-12-08T16:09:44.870Z,98557.63
2022-12-08T16:12:56.894Z,98562.47
2022-12-08T16:18:18.507Z,98578.91
2022-12-08T16:21:12.400Z,98575.25
2022-12-08T16:23:43.555Z,98572.63
2022-12-08T16:26:31.814Z,98582.25
2022-12-08T16:29:06.153Z,98576.09
2022-12-08T16:31:36.675Z,98571.81
2022-12-08T16:34:06.459Z,98573.09
2022-12-08T16:36:38.791Z,98572.22
2022-12-08T16:39:08.639Z,98575.38
2022-12-08T16:41:50.944Z,98569.03
2022-12-08T16:44:20.756Z,98575.38
2022-12-08T16:46:50.473Z,98579.59
2022-12-08T16:49:20.233Z,98586.09
2022-12-08T16:51:52.542Z,98590.44
2022-12-08T16:54:22.286Z,98596.53
2022-12-08T16:56:51.993Z,98594.78
2022-12-08T16:59:21.696Z,98597.00
2022-12-08T17:01:52.712Z,98591.13
2022-12-08T17:04:31.468Z,98601.81
2022-12-08T17:07:04.896Z,98601.22
2022-12-08T17:09:35.102Z,98606.03
2022-12-08T17:12:05.109Z,98606.03
2022-12-08T17:14:37.102Z,98604.06
2022-12-08T17:17:07.281Z,98612.88
2022-12-08T17:19:37.268Z,98606.53
2022-12-08T17:22:09.632Z,98600.50
2022-12-08T17:24:40.253Z,98595.59
2022-12-08T17:27:09.918Z,98594.66
2022-12-08T17:29:39.856Z,98596.28
2022-12-08T17:32:09.832Z,98598.16
2022-12-08T17:34:39.595Z,98608.03
2022-12-08T17:37:11.881Z,98608.22
2022-12-08T17:39:42.015Z,98603.94
2022-12-08T17:42:11.750Z,98611.44
2022-12-08T17:44:41.540Z,98607.22
2022-12-08T17:47:11.411Z,98611.63
2022-12-08T17:49:41.196Z,98608.97
2022-12-08T17:52:14.473Z,98618.44
2022-12-08T17:54:44.276Z,98620.53
2022-12-08T17:57:13.984Z,98608.88
2022-12-08T17:59:43.701Z,98608.16
2022-12-08T18:02:14.201Z,98607.81
2022-12-08T18:04:43.985Z,98601.69
2022-12-08T18:07:16.303Z,98614.72
2022-12-08T18:09:46.290Z,98616.81
2022-12-08T18:12:22.264Z,98616.13
2022-12-08T18:14:53.299Z,98607.81
2022-12-08T18:17:23.291Z,98613.44
2022-12-08T18:19:53.122Z,98613.53
2022-12-08T18:22:26.823Z,98618.28
2022-12-08T18:24:56.591Z,98625.19
2022-12-08T18:27:26.739Z,98622.34
2022-12-08T18:29:56.566Z,98620.00
2022-12-08T18:32:26.330Z,98624.97
2022-12-08T18:34:56.526Z,98632.50
2022-12-08T18:37:28.788Z,98624.81
2022-12-08T18:39:58.472Z,98619.22
2022-12-08T18:42:28.386Z,98608.75
2022-12-08T18:45:03.010Z,98609.63
2022-12-08T18:47:35.398Z,98610.38
2022-12-08T18:50:05.411Z,98606.84
2022-12-08T18:52:38.138Z,98608.03
2022-12-08T18:55:09.248Z,98605.31
2022-12-08T18:57:42.483Z,98611.19
2022-12-08T19:00:16.375Z,98608.06
2022-12-08T19:02:46.283Z,98608.19
2022-12-08T19:05:16.493Z,98609.34
2022-12-08T19:07:48.972Z,98609.34
2022-12-08T19:10:18.794Z,98599.38
2022-12-08T19:12:48.489Z,98608.88
2022-12-08T19:15:18.192Z,98613.44
2022-12-08T19:17:47.942Z,98619.00
2022-12-08T19:20:17.738Z,98612.25
2022-12-08T19:22:50.005Z,98602.88
2022-12-08T19:25:21.322Z,98616.50
2022-12-08T19:27:51.188Z,98622.69
2022-12-08T19:30:20.954Z,98620.72
2022-12-08T19:32:50.652Z,98632.56
2022-12-08T19:35:20.725Z,98631.72
2022-12-08T19:37:54.822Z,98637.22
2022-12-08T19:40:37.285Z,98634.00
2022-12-08T19:43:19.450Z,98631.63
2022-12-08T19:45:49.206Z,98633.66
2022-12-08T19:48:18.881Z,98640.13
2022-12-08T19:50:48.636Z,98640.47
2022-12-08T19:53:21.051Z,98641.66
2022-12-08T19:55:50.863Z,98642.22
2022-12-08T19:58:21.810Z,98640.56
2022-12-08T20:00:51.638Z,98636.44
2022-12-08T20:03:23.202Z,98647.75
2022-12-08T20:05:55.290Z,98647.00
2022-12-08T20:08:28.772Z,98648.59
2022-12-08T20:10:59.500Z,98661.38
2022-12-08T20:13:45.785Z,98648.28
2022-12-08T20:16:16.300Z,98660.78
2022-12-08T20:18:48.609Z,98654.28
2022-12-08T20:21:19.730Z,98661.31
2022-12-08T20:23:52.300Z,98659.22
2022-12-08T20:26:24.229Z,98664.88
2022-12-08T20:28:54.068Z,98669.81
2022-12-08T20:31:25.962Z,98673.59
2022-12-08T20:33:56.291Z,98673.84
2022-12-08T20:36:26.108Z,98670.56
2022-12-08T20:38:58.858Z,98666.69
2022-12-08T20:41:28.561Z,98667.25
2022-12-08T20:43:58.282Z,98678.66
2022-12-08T20:46:28.146Z,98677.34
2022-12-08T20:49:01.240Z,98677.13
2022-12-08T20:51:32.150Z,98670.13
2022-12-08T20:54:04.804Z,98673.84
2022-12-08T20:56:35.065Z,98672.78
2022-12-08T20:59:05.207Z,98672.69
2022-12-08T21:01:35.045Z,98680.19
2022-12-08T21:04:05.185Z,98671.38
2022-12-08T21:06:35.055Z,98665.28
2022-12-08T21:09:07.454Z,98670.75
2022-12-08T21:11:37.745Z,98668.94
2022-12-08T21:14:07.497Z,98661.28
2022-12-08T21:16:37.474Z,98659.41
2022-12-08T21:19:07.346Z,98660.56
2022-12-08T21:21:37.117Z,98656.00
2022-12-08T21:24:10.951Z,98671.38
2022-12-08T21:26:41.011Z,98660.44
2022-12-08T21:29:12.367Z,98655.97
2022-12-08T21:31:43.190Z,98661.84
2022-12-08T21:34:13.803Z,98660.38
2022-12-08T21:36:43.695Z,98663.81
2022-12-08T21:39:16.113Z,98667.72
2022-12-08T21:41:58.413Z,98672.91
2022-12-08T21:44:28.182Z,98661.31
2022-12-08T21:46:58.093Z,98667.16
2022-12-08T21:49:27.884Z,98671.53
2022-12-08T21:51:57.895Z,98674.09
2022-12-08T21:54:30.281Z,98673.13
2022-12-08T21:57:00.028Z,98673.06
2022-12-08T21:59:29.719Z,98679.28
2022-12-08T22:01:59.726Z,98690.06
2022-12-08T22:04:29.835Z,98682.63
2022-12-08T22:06:59.965Z,98689.09
2022-12-08T22:09:32.395Z,98691.50
2022-12-08T22:12:02.162Z,98692.38
2022-12-08T22:14:31.954Z,98691.63
2022-12-08T22:17:01.771Z,98694.91
2022-12-08T22:19:33.361Z,98694.28
2022-12-08T22:22:03.457Z,98699.66
2022-12-08T22:24:35.948Z,98691.03
2022-12-08T22:27:05.962Z,98688.94
2022-12-08T22:29:36.025Z,98687.28
2022-12-08T22:32:05.954Z,98699.78
2022-12-08T22:34:35.894Z,98694.69
2022-12-08T22:37:05.781Z,98689.44
2022-12-08T22:39:38.705Z,98690.13
2022-12-08T22:42:08.993Z,98693.88
2022-12-08T22:44:39.052Z,98694.13
2022-12-08T22:47:09.040Z,98691.34
2022-12-08T22:49:38.934Z,98695.53
2022-12-08T22:52:08.748Z,98693.44
2022-12-08T22:54:42.553Z,98700.00
2022-12-08T22:57:12.719Z,98696.84
2022-12-08T22:59:43.671Z,98698.38
2022-12-08T23:02:13.843Z,98700.97
2022-12-08T23:04:46.425Z,98703.31
2022-12-08T23:07:16.466Z,98703.25
2022-12-08T23:09:49.107Z,98693.22
2022-12-08T23:12:18.828Z,98691.16
2022-12-08T23:14:48.489Z,98692.97
2022-12-08T23:17:18.402Z,98696.63
2022-12-08T23:19:48.200Z,98692.84
2022-12-08T23:22:18.167Z,98686.31
2022-12-08T23:24:50.433Z,98684.97
2022-12-08T23:27:20.104Z,98678.97
2022-12-08T23:29:49.857Z,98675.63
2022-12-08T23:32:19.773Z,98674.44
2022-12-08T23:34:49.582Z,98673.97
2022-12-08T23:37:20.619Z,98672.88
2022-12-08T23:39:52.983Z,98680.47
2022-12-08T23:42:23.933Z,98671.84
2022-12-08T23:44:54.014Z,98669.69
2022-12-08T23:47:23.765Z,98673.63
2022-12-08T23:49:53.761Z,98670.66
2022-12-08T23:52:23.513Z,98671.41
2022-12-08T23:54:57.118Z,98669.13
2022-12-08T23:57:27.263Z,98664.72
2022-12-08T23:59:57.049Z,98673.34
